Time;durP1;ratioP1;P1;durP2;ratioP2;P2;SDS_P1;SDS_P2;PMS_P1;PMS_P2;Temp;Humidity;BMP_temperature;BMP_pressure;BME280_temperature;BME280_humidity;BME280_pressure;Samples;Min_cycle;Max_cycle;Signal;HPM_P1;HPM_P2
2023/02/14 00:02:09;;;;;;;10.07;8.97;;;3.60;99.90;;;;;;6273106;28;20974;-62
2023/02/14 00:05:13;;;;;;;12.47;9.83;;;3.50;99.90;;;;;;6273512;28;20477;-62
2023/02/14 00:08:16;;;;;;;15.27;10.10;;;3.50;99.90;;;;;;6273408;28;20773;-62
2023/02/14 00:11:20;;;;;;;15.90;10.10;;;3.50;99.90;;;;;;6273367;28;20466;-62
2023/02/14 00:17:45;;;;;;;12.70;9.87;;;3.50;99.90;;;;;;6273018;28;20462;-61
2023/02/14 00:20:48;;;;;;;16.30;10.60;;;3.40;99.90;;;;;;6272776;28;20471;-62
2023/02/14 00:23:51;;;;;;;13.10;10.83;;;3.40;99.90;;;;;;6274584;28;20470;-61
2023/02/14 00:26:55;;;;;;;12.30;10.07;;;3.40;99.90;;;;;;6277717;28;20478;-63
2023/02/14 00:30:01;;;;;;;13.83;10.57;;;3.40;99.90;;;;;;6277619;28;20488;-63
2023/02/14 00:33:06;;;;;;;14.40;10.67;;;3.40;99.90;;;;;;6273223;28;20492;-63
2023/02/14 00:36:11;;;;;;;13.87;10.27;;;3.30;99.90;;;;;;6277439;28;20510;-63
2023/02/14 00:39:15;;;;;;;11.47;9.67;;;3.30;99.90;;;;;;6277213;28;20962;-63
2023/02/14 00:42:19;;;;;;;11.40;10.17;;;3.20;99.90;;;;;;6277745;28;20470;-67
2023/02/14 00:45:22;;;;;;;16.13;11.03;;;3.10;99.90;;;;;;6278003;28;20467;-64
2023/02/14 00:48:27;;;;;;;19.80;11.80;;;3.10;99.90;;;;;;6276720;28;20958;-63
2023/02/14 00:51:31;;;;;;;12.07;10.87;;;3.10;99.90;;;;;;6276207;28;20493;-63
2023/02/14 00:54:34;;;;;;;11.17;9.80;;;3.00;99.90;;;;;;6276115;28;20821;-63
2023/02/14 00:57:37;;;;;;;15.70;11.40;;;3.00;99.90;;;;;;6276983;28;20489;-63
2023/02/14 01:00:40;;;;;;;13.90;11.00;;;3.00;99.90;;;;;;6277303;28;20482;-63
2023/02/14 01:03:45;;;;;;;15.07;11.40;;;3.00;99.90;;;;;;6276428;28;20880;-63
2023/02/14 01:06:48;;;;;;;17.67;11.60;;;3.00;99.90;;;;;;6277239;28;20520;-63
2023/02/14 01:09:51;;;;;;;15.30;10.23;;;3.00;99.90;;;;;;6276844;28;20470;-63
2023/02/14 01:12:54;;;;;;;12.80;9.70;;;3.00;99.90;;;;;;6276834;28;20489;-64
2023/02/14 01:15:58;;;;;;;12.20;10.60;;;3.00;99.90;;;;;;6276597;28;20788;-63
2023/02/14 01:19:02;;;;;;;12.70;9.47;;;3.00;99.90;;;;;;6276280;28;20482;-63
2023/02/14 01:22:06;;;;;;;16.67;9.73;;;3.00;99.90;;;;;;6276555;28;20478;-63
2023/02/14 01:25:09;;;;;;;14.07;10.30;;;2.90;99.90;;;;;;6276329;28;20835;-64
2023/02/14 01:28:12;;;;;;;12.60;10.10;;;2.90;99.90;;;;;;6275749;28;20473;-64
2023/02/14 01:31:17;;;;;;;14.10;11.20;;;2.80;99.90;;;;;;6275807;28;20485;-63
2023/02/14 01:34:22;;;;;;;15.27;10.40;;;2.80;99.90;;;;;;6275709;28;20470;-63
2023/02/14 01:37:26;;;;;;;13.73;10.13;;;2.70;99.90;;;;;;6275531;28;20465;-63
2023/02/14 01:40:29;;;;;;;15.20;9.63;;;2.70;99.90;;;;;;6276229;28;20462;-63
2023/02/14 01:43:32;;;;;;;17.00;11.07;;;2.70;99.90;;;;;;6276023;28;20902;-64
2023/02/14 01:46:37;;;;;;;13.47;9.90;;;2.70;99.90;;;;;;6276295;28;20461;-63
2023/02/14 01:49:46;;;;;;;15.87;10.70;;;2.70;99.90;;;;;;6275672;28;20923;-63
2023/02/14 01:52:52;;;;;;;16.97;11.50;;;2.70;99.90;;;;;;6275422;28;20524;-63
2023/02/14 01:56:02;;;;;;;14.33;11.13;;;2.70;99.90;;;;;;6275841;28;20984;-63
2023/02/14 01:59:08;;;;;;;17.07;11.90;;;2.70;99.90;;;;;;6275557;28;20783;-63
2023/02/14 02:02:12;;;;;;;14.40;10.77;;;2.70;99.90;;;;;;6275186;28;20806;-63
2023/02/14 02:05:22;;;;;;;15.47;10.70;;;2.70;99.90;;;;;;6275804;28;20615;-63
2023/02/14 02:08:26;;;;;;;15.73;11.30;;;2.60;99.90;;;;;;6275483;28;20616;-63
2023/02/14 02:11:29;;;;;;;12.63;11.20;;;2.60;99.90;;;;;;6275722;28;20474;-63
2023/02/14 02:14:33;;;;;;;14.30;9.33;;;2.70;99.90;;;;;;6275498;28;20470;-64
2023/02/14 02:17:47;;;;;;;12.90;9.70;;;2.60;99.90;;;;;;6275232;28;20493;-64
2023/02/14 02:21:13;;;;;;;13.03;11.73;;;2.60;99.90;;;;;;6274443;28;20532;-63
2023/02/14 02:24:33;;;;;;;12.90;10.00;;;2.60;99.90;;;;;;6274911;28;20481;-63
2023/02/14 02:28:04;;;;;;;13.00;10.10;;;2.60;99.90;;;;;;6274667;28;20806;-63
2023/02/14 02:31:25;;;;;;;13.43;10.70;;;2.50;99.90;;;;;;6274462;28;20864;-63
2023/02/14 02:35:09;;;;;;;17.10;10.73;;;2.50;99.90;;;;;;6274516;28;20521;-63
2023/02/14 02:38:28;;;;;;;14.83;10.67;;;2.50;99.90;;;;;;6274694;28;20481;-64
2023/02/14 02:41:43;;;;;;;12.20;10.17;;;2.50;99.90;;;;;;6264130;28;20937;-63
2023/02/14 02:44:56;;;;;;;13.10;10.00;;;2.50;99.90;;;;;;6274513;28;20958;-64
2023/02/14 02:48:07;;;;;;;16.60;11.27;;;2.40;99.90;;;;;;6274211;28;20488;-63
2023/02/14 02:54:43;;;;;;;15.37;11.83;;;2.40;99.90;;;;;;6274457;28;20482;-63
2023/02/14 02:57:48;;;;;;;11.17;9.57;;;2.40;99.90;;;;;;6274657;28;20470;-63
2023/02/14 03:00:53;;;;;;;14.20;9.67;;;2.40;99.90;;;;;;6273884;28;20474;-64
2023/02/14 03:07:38;;;;;;;12.53;9.17;;;2.40;99.90;;;;;;6274063;28;20843;-64
2023/02/14 03:10:41;;;;;;;14.30;9.50;;;2.30;99.90;;;;;;6274333;28;20802;-64
2023/02/14 03:14:09;;;;;;;10.90;8.53;;;2.30;99.90;;;;;;6274565;28;20482;-64
2023/02/14 03:20:53;;;;;;;15.57;9.47;;;2.30;99.90;;;;;;6274212;28;20474;-64
2023/02/14 03:24:05;;;;;;;13.33;10.20;;;2.30;99.90;;;;;;6273523;28;20545;-64
2023/02/14 03:27:15;;;;;;;12.03;9.10;;;2.30;99.90;;;;;;6273631;28;20482;-64
2023/02/14 03:30:25;;;;;;;13.80;9.83;;;2.30;99.90;;;;;;6273703;28;20474;-64
2023/02/14 03:33:33;;;;;;;10.93;8.80;;;2.20;99.90;;;;;;6274306;28;20592;-64
2023/02/14 03:36:40;;;;;;;11.70;8.70;;;2.20;99.90;;;;;;6273659;28;20974;-65
2023/02/14 03:39:56;;;;;;;9.40;8.40;;;2.20;99.90;;;;;;6274119;28;20810;-65
2023/02/14 03:43:06;;;;;;;12.63;8.90;;;2.20;99.90;;;;;;6273777;28;20471;-64
2023/02/14 03:46:15;;;;;;;13.00;9.80;;;2.20;99.90;;;;;;6269392;28;20485;-63
2023/02/14 03:49:21;;;;;;;12.87;9.40;;;2.10;99.90;;;;;;6274375;28;20490;-63
2023/02/14 03:52:26;;;;;;;14.40;9.80;;;2.10;99.90;;;;;;6274448;28;20455;-63
2023/02/14 03:55:37;;;;;;;14.70;9.03;;;2.10;99.90;;;;;;6274288;28;20820;-63
2023/02/14 03:58:44;;;;;;;13.33;10.30;;;2.10;99.90;;;;;;6274801;28;21050;-63
2023/02/14 04:01:53;;;;;;;15.53;10.77;;;2.00;99.90;;;;;;6279872;28;20524;-63
2023/02/14 04:04:59;;;;;;;15.80;10.47;;;2.00;99.90;;;;;;6279598;28;20462;-63
2023/02/14 04:08:02;;;;;;;14.10;10.20;;;2.00;99.90;;;;;;6278734;28;20829;-64
2023/02/14 04:11:07;;;;;;;14.27;11.30;;;2.00;99.90;;;;;;6278075;28;20474;-63
2023/02/14 04:14:11;;;;;;;14.10;9.30;;;2.00;99.90;;;;;;6277935;28;20462;-63
2023/02/14 04:20:35;;;;;;;13.80;10.00;;;2.00;99.90;;;;;;6277962;28;21069;-64
2023/02/14 04:23:39;;;;;;;15.50;10.23;;;2.00;99.90;;;;;;6278244;28;20757;-65
2023/02/14 04:26:53;;;;;;;15.03;10.30;;;2.00;99.90;;;;;;6278233;28;20542;-64
2023/02/14 04:29:56;;;;;;;18.27;12.17;;;2.00;99.90;;;;;;6277889;28;20477;-65
2023/02/14 04:32:59;;;;;;;12.87;9.13;;;2.00;99.90;;;;;;6277457;28;20470;-64
2023/02/14 04:36:02;;;;;;;11.20;9.17;;;2.00;99.90;;;;;;6277857;28;20840;-64
2023/02/14 04:39:06;;;;;;;13.60;10.10;;;2.00;99.90;;;;;;6277497;28;20485;-64
2023/02/14 04:42:10;;;;;;;10.10;8.20;;;2.00;99.90;;;;;;6277456;28;20477;-65
2023/02/14 04:45:14;;;;;;;12.37;9.53;;;2.00;99.90;;;;;;6277742;28;20465;-64
2023/02/14 04:48:17;;;;;;;11.70;8.67;;;1.90;99.90;;;;;;6276991;28;20470;-65
2023/02/14 04:51:20;;;;;;;13.10;8.63;;;1.90;99.90;;;;;;6277236;28;20474;-64
2023/02/14 04:54:24;;;;;;;13.63;10.37;;;1.80;99.90;;;;;;6276747;28;20485;-64
2023/02/14 04:57:28;;;;;;;16.63;10.00;;;1.80;99.90;;;;;;6277313;28;20947;-64
2023/02/14 05:00:31;;;;;;;13.73;10.63;;;1.80;99.90;;;;;;6276834;28;20950;-65
2023/02/14 05:03:35;;;;;;;15.90;11.30;;;1.80;99.90;;;;;;6277176;28;20577;-64
2023/02/14 05:06:38;;;;;;;23.07;12.30;;;1.80;99.90;;;;;;6278725;28;20473;-64
2023/02/14 05:09:41;;;;;;;16.70;10.33;;;1.80;99.90;;;;;;6278819;28;20481;-64
2023/02/14 05:12:46;;;;;;;17.17;11.60;;;1.80;99.90;;;;;;6277199;28;20474;-64
2023/02/14 05:15:49;;;;;;;13.17;9.63;;;1.80;99.90;;;;;;6276627;28;20490;-64
2023/02/14 05:18:52;;;;;;;10.63;8.63;;;1.80;99.90;;;;;;6276602;28;20539;-65
2023/02/14 05:21:55;;;;;;;15.50;11.80;;;1.70;99.90;;;;;;6276583;28;20470;-65
2023/02/14 05:24:58;;;;;;;16.20;10.10;;;1.70;99.90;;;;;;6276543;28;20481;-64
2023/02/14 05:28:03;;;;;;;14.13;9.67;;;1.70;99.90;;;;;;6276445;28;20497;-64
2023/02/14 05:31:06;;;;;;;11.40;9.40;;;1.70;99.90;;;;;;6275980;28;20543;-64
2023/02/14 05:34:10;;;;;;;13.40;9.67;;;1.70;99.90;;;;;;6276399;28;20481;-65
2023/02/14 05:37:13;;;;;;;16.87;10.50;;;1.70;99.90;;;;;;6276374;28;20485;-64
2023/02/14 05:40:16;;;;;;;12.67;10.90;;;1.60;99.90;;;;;;6275710;28;20601;-64
2023/02/14 05:43:21;;;;;;;14.20;9.70;;;1.70;99.90;;;;;;6276456;28;20474;-64
2023/02/14 05:46:24;;;;;;;14.93;9.27;;;1.60;99.90;;;;;;6275692;28;20790;-64
2023/02/14 05:49:28;;;;;;;13.67;9.20;;;1.60;99.90;;;;;;6276273;28;20470;-65
2023/02/14 05:52:31;;;;;;;13.60;9.67;;;1.60;99.90;;;;;;6267158;28;20762;-65
2023/02/14 05:55:34;;;;;;;9.80;8.60;;;1.60;99.90;;;;;;6275736;28;20474;-65
2023/02/14 05:58:39;;;;;;;13.40;10.47;;;1.50;99.90;;;;;;6275168;28;20922;-65
2023/02/14 06:01:42;;;;;;;13.73;10.10;;;1.50;99.90;;;;;;6276271;28;20453;-65
2023/02/14 06:04:45;;;;;;;18.80;12.50;;;1.50;99.90;;;;;;6274683;28;20466;-65
2023/02/14 06:07:50;;;;;;;20.00;12.00;;;1.50;99.90;;;;;;6275380;28;20461;-64
2023/02/14 06:10:53;;;;;;;14.30;10.70;;;1.50;99.90;;;;;;6275490;28;20466;-64
2023/02/14 06:13:58;;;;;;;16.23;11.50;;;1.50;99.90;;;;;;6275863;28;20466;-64
2023/02/14 06:17:01;;;;;;;12.90;11.03;;;1.50;99.90;;;;;;6275240;28;20470;-64
2023/02/14 06:20:06;;;;;;;14.07;10.83;;;1.60;99.90;;;;;;6275536;28;20466;-64
2023/02/14 06:23:09;;;;;;;14.37;11.40;;;1.60;99.90;;;;;;6274967;28;20477;-64
2023/02/14 06:26:13;;;;;;;21.07;13.80;;;1.60;99.90;;;;;;6275100;28;20946;-64
2023/02/14 06:29:18;;;;;;;14.60;12.50;;;1.70;99.90;;;;;;6274904;28;20792;-64
2023/02/14 06:32:21;;;;;;;13.57;10.83;;;1.70;99.90;;;;;;6274870;28;21074;-64
2023/02/14 06:35:24;;;;;;;17.13;10.73;;;1.70;99.90;;;;;;6275439;28;20466;-64
2023/02/14 06:38:27;;;;;;;17.83;11.23;;;1.70;99.90;;;;;;6275286;28;20569;-64
2023/02/14 06:41:31;;;;;;;15.20;11.97;;;1.80;99.90;;;;;;6274907;28;20470;-65
2023/02/14 06:44:35;;;;;;;13.87;10.70;;;1.80;99.90;;;;;;6274824;28;20962;-64
2023/02/14 06:47:39;;;;;;;14.00;10.93;;;1.90;99.90;;;;;;6274748;28;20470;-64
2023/02/14 06:50:43;;;;;;;14.93;11.10;;;1.90;99.90;;;;;;6275271;28;20485;-64
2023/02/14 06:53:46;;;;;;;18.23;12.40;;;1.90;99.90;;;;;;6275142;28;20482;-64
2023/02/14 06:56:49;;;;;;;22.03;16.03;;;1.90;99.90;;;;;;6274864;28;20481;-65
2023/02/14 06:59:54;;;;;;;21.13;12.53;;;2.00;99.90;;;;;;6274655;28;20478;-65
2023/02/14 07:02:57;;;;;;;18.47;12.77;;;2.00;99.90;;;;;;6274134;28;20938;-65
2023/02/14 07:06:00;;;;;;;16.80;11.60;;;2.10;99.90;;;;;;6274200;28;20846;-65
2023/02/14 07:09:04;;;;;;;15.70;12.37;;;2.10;99.90;;;;;;6274356;28;20798;-65
2023/02/14 07:12:08;;;;;;;17.30;12.73;;;2.20;99.90;;;;;;6274186;28;20467;-65
2023/02/14 07:15:13;;;;;;;16.00;12.80;;;2.20;99.90;;;;;;6274398;28;20478;-65
2023/02/14 07:18:16;;;;;;;15.40;11.87;;;2.30;99.90;;;;;;6275780;28;20482;-63
2023/02/14 07:21:19;;;;;;;16.60;11.53;;;2.30;99.90;;;;;;6275494;28;20976;-64
2023/02/14 07:24:23;;;;;;;15.90;11.17;;;2.40;99.90;;;;;;6274102;28;20785;-64
2023/02/14 07:27:26;;;;;;;17.60;15.03;;;2.40;99.90;;;;;;6274446;28;20466;-64
2023/02/14 07:30:31;;;;;;;16.50;11.73;;;2.50;99.90;;;;;;6273804;28;20486;-64
2023/02/14 07:33:34;;;;;;;17.07;11.30;;;2.50;99.90;;;;;;6275378;28;20470;-64
2023/02/14 07:36:38;;;;;;;14.17;11.10;;;2.60;99.90;;;;;;6278782;28;20473;-64
2023/02/14 07:39:41;;;;;;;15.60;12.40;;;2.70;99.90;;;;;;6279359;28;20470;-65
2023/02/14 07:42:44;;;;;;;22.00;11.37;;;2.80;99.90;;;;;;6279017;28;20474;-64
2023/02/14 07:45:49;;;;;;;20.57;13.20;;;2.90;99.90;;;;;;6279031;28;20472;-64
2023/02/14 07:48:52;;;;;;;26.13;13.70;;;3.00;99.90;;;;;;6278979;28;20992;-64
2023/02/14 07:51:55;;;;;;;17.30;13.30;;;3.10;99.90;;;;;;6279151;28;20491;-64
2023/02/14 07:54:59;;;;;;;18.67;13.10;;;3.20;99.90;;;;;;6278715;28;20482;-65
2023/02/14 07:58:02;;;;;;;16.87;15.10;;;3.30;99.90;;;;;;6278686;28;20481;-65
2023/02/14 08:01:07;;;;;;;20.90;17.43;;;3.40;99.90;;;;;;6278717;28;20474;-65
2023/02/14 08:04:12;;;;;;;25.13;17.70;;;3.40;99.90;;;;;;6277899;28;20474;-65
2023/02/14 08:07:15;;;;;;;29.13;17.40;;;3.50;99.90;;;;;;6277588;28;20466;-65
2023/02/14 08:10:19;;;;;;;22.97;15.93;;;3.50;99.90;;;;;;6277877;28;20481;-65
2023/02/14 08:13:22;;;;;;;18.87;15.97;;;3.70;99.90;;;;;;6277583;28;20470;-64
2023/02/14 08:16:27;;;;;;;28.80;17.80;;;3.80;99.90;;;;;;6278212;28;20478;-64
2023/02/14 08:19:30;;;;;;;24.57;17.07;;;3.80;99.90;;;;;;6278207;28;20477;-64
2023/02/14 08:22:34;;;;;;;26.23;18.00;;;3.90;99.90;;;;;;6278073;28;20446;-65
2023/02/14 08:25:37;;;;;;;21.20;16.07;;;3.80;99.90;;;;;;6278302;28;20442;-64
2023/02/14 08:28:40;;;;;;;25.90;17.60;;;3.90;99.90;;;;;;6252738;28;20762;-64
2023/02/14 08:31:46;;;;;;;25.90;16.90;;;3.80;99.90;;;;;;6253338;28;20743;-64
2023/02/14 08:34:49;;;;;;;22.83;17.30;;;4.00;99.90;;;;;;6253309;28;20459;-64
2023/02/14 08:37:52;;;;;;;21.40;17.10;;;4.00;99.90;;;;;;6252600;28;20549;-64
2023/02/14 08:41:00;;;;;;;23.43;15.73;;;4.10;99.90;;;;;;6252880;28;20883;-65
2023/02/14 08:44:06;;;;;;;20.53;15.57;;;4.20;99.90;;;;;;6252049;28;20467;-65
2023/02/14 08:47:11;;;;;;;28.43;16.27;;;4.30;99.90;;;;;;6253080;28;20471;-64
2023/02/14 08:50:17;;;;;;;18.70;15.00;;;4.40;99.90;;;;;;6252510;28;20467;-64
2023/02/14 08:53:21;;;;;;;25.03;15.67;;;4.60;99.90;;;;;;6252325;28;20939;-64
2023/02/14 08:56:24;;;;;;;17.33;13.97;;;4.80;99.90;;;;;;6252138;28;20471;-64
2023/02/14 08:59:27;;;;;;;23.87;16.07;;;5.00;99.90;;;;;;6252483;28;20481;-62
2023/02/14 09:02:32;;;;;;;22.37;17.30;;;5.30;99.90;;;;;;6252438;28;20478;-62
2023/02/14 09:05:36;;;;;;;24.43;15.23;;;5.60;99.90;;;;;;6243615;28;20468;-62
2023/02/14 09:08:40;;;;;;;18.93;15.43;;;5.90;99.90;;;;;;6252283;28;20525;-62
2023/02/14 09:11:43;;;;;;;22.57;16.80;;;6.40;99.50;;;;;;6252262;28;20471;-62
2023/02/14 09:14:46;;;;;;;19.43;15.90;;;7.50;98.30;;;;;;6252177;28;20466;-62
2023/02/14 09:17:51;;;;;;;22.33;17.07;;;10.80;95.40;;;;;;6252078;28;20478;-62
2023/02/14 09:20:54;;;;;;;22.57;16.47;;;14.80;79.60;;;;;;6262240;28;20954;-63
2023/02/14 09:23:57;;;;;;;20.90;15.40;;;18.40;58.80;;;;;;6276372;28;20481;-63
2023/02/14 09:27:01;;;;;;;18.00;16.23;;;21.60;45.40;;;;;;6276321;28;20779;-63
2023/02/14 09:30:05;;;;;;;22.00;18.57;;;24.20;38.10;;;;;;6277155;28;20243;-63
2023/02/14 09:33:10;;;;;;;18.70;17.10;;;26.50;32.20;;;;;;6277156;28;20332;-63
2023/02/14 09:39:35;;;;;;;18.60;16.93;;;29.60;25.60;;;;;;6276347;28;20702;-63
2023/02/14 09:42:51;;;;;;;19.00;17.00;;;27.10;25.70;;;;;;6276278;28;20231;-63
2023/02/14 09:45:58;;;;;;;19.47;17.50;;;23.90;28.30;;;;;;6276009;28;20242;-62
2023/02/14 09:49:02;;;;;;;18.23;16.53;;;20.80;31.20;;;;;;6275822;28;20231;-62
2023/02/14 09:52:11;;;;;;;19.13;15.40;;;18.20;35.20;;;;;;6276937;28;20238;-62
2023/02/14 09:55:16;;;;;;;18.03;13.93;;;17.00;38.90;;;;;;6283666;28;20234;-62
2023/02/14 09:58:26;;;;;;;14.90;13.40;;;19.10;38.00;;;;;;6276546;28;20227;-63
2023/02/14 10:01:35;;;;;;;16.37;14.87;;;23.10;34.10;;;;;;6275780;28;20507;-65
2023/02/14 10:04:46;;;;;;;17.87;16.07;;;26.40;28.90;;;;;;6276021;28;20201;-63
2023/02/14 10:08:00;;;;;;;16.23;14.83;;;28.40;26.40;;;;;;6266330;28;20242;-63
2023/02/14 10:11:08;;;;;;;18.90;16.00;;;30.00;24.30;;;;;;6276076;28;20241;-63
2023/02/14 10:14:15;;;;;;;17.15;15.38;;;31.20;23.50;;;;;;6275760;28;20234;-63
2023/02/14 10:17:26;;;;;;;18.42;16.67;;;30.80;22.20;;;;;;6275853;28;20235;-64
2023/02/14 10:20:37;;;;;;;19.40;17.33;;;31.90;22.00;;;;;;6275439;28;20226;-63
2023/02/14 10:23:45;;;;;;;17.85;16.35;;;32.90;20.80;;;;;;6275532;28;20227;-63
2023/02/14 10:26:50;;;;;;;16.63;15.13;;;34.10;20.20;;;;;;6274737;28;20561;-63
2023/02/14 10:29:54;;;;;;;17.83;16.42;;;34.20;19.30;;;;;;6275119;28;20239;-63
2023/02/14 10:33:03;;;;;;;17.42;15.82;;;34.20;19.10;;;;;;6274950;28;20256;-64
2023/02/14 10:36:17;;;;;;;17.33;15.77;;;35.20;19.00;;;;;;6275061;28;20231;-63
2023/02/14 10:39:48;;;;;;;17.40;16.10;;;36.30;17.90;;;;;;6274846;28;20237;-63
2023/02/14 10:42:59;;;;;;;17.38;15.88;;;36.60;17.60;;;;;;6276686;28;20233;-64
2023/02/14 10:46:10;;;;;;;16.10;14.90;;;38.00;16.80;;;;;;6277708;28;20238;-64
2023/02/14 10:49:27;;;;;;;16.40;14.82;;;39.10;16.20;;;;;;6274460;28;20231;-65
2023/02/14 10:52:37;;;;;;;16.88;15.55;;;39.80;15.30;;;;;;6276977;28;20226;-64
2023/02/14 10:55:49;;;;;;;16.25;15.05;;;38.50;15.60;;;;;;6274875;28;20218;-65
2023/02/14 10:58:56;;;;;;;18.25;16.75;;;39.40;15.30;;;;;;6274117;28;20235;-64
2023/02/14 11:02:01;;;;;;;16.50;15.18;;;39.80;14.60;;;;;;6277282;28;20232;-64
2023/02/14 11:05:06;;;;;;;17.15;15.57;;;39.20;15.20;;;;;;6276134;28;20227;-64
2023/02/14 11:08:24;;;;;;;17.70;15.82;;;39.30;15.00;;;;;;6276064;28;20224;-65
2023/02/14 11:11:34;;;;;;;17.90;16.25;;;39.60;14.60;;;;;;6271729;28;20311;-64
2023/02/14 11:14:39;;;;;;;17.70;16.30;;;39.20;14.50;;;;;;6277226;28;20249;-64
2023/02/14 11:17:43;;;;;;;16.45;15.25;;;39.40;14.70;;;;;;6276666;28;20253;-64
2023/02/14 11:21:00;;;;;;;19.88;18.17;;;39.40;14.30;;;;;;6275666;28;20234;-64
2023/02/14 11:24:17;;;;;;;16.38;15.07;;;39.70;14.30;;;;;;6274754;28;20228;-63
2023/02/14 11:27:20;;;;;;;18.17;16.77;;;38.60;14.70;;;;;;6277845;28;20331;-63
2023/02/14 11:30:30;;;;;;;18.20;16.67;;;38.00;15.20;;;;;;6278045;28;20687;-63
2023/02/14 11:33:38;;;;;;;17.38;16.08;;;38.50;15.00;;;;;;6275670;28;20240;-64
2023/02/14 11:36:42;;;;;;;17.75;16.20;;;39.30;14.60;;;;;;6276296;28;20227;-63
2023/02/14 11:39:46;;;;;;;17.52;16.23;;;39.60;14.20;;;;;;6275202;28;20237;-63
2023/02/14 11:42:50;;;;;;;16.88;15.43;;;40.40;14.10;;;;;;6274731;28;20231;-64
2023/02/14 11:46:13;;;;;;;17.05;15.73;;;40.90;13.70;;;;;;6273990;28;20227;-66
2023/02/14 11:49:29;;;;;;;16.63;15.23;;;41.50;13.60;;;;;;6273578;28;20335;-64
2023/02/14 11:52:39;;;;;;;19.42;17.50;;;41.40;13.30;;;;;;6273595;28;20241;-64
2023/02/14 11:55:44;;;;;;;16.67;15.32;;;40.20;13.70;;;;;;6273839;28;20196;-64
2023/02/14 11:58:53;;;;;;;19.27;17.48;;;39.50;14.20;;;;;;6273572;28;20239;-64
2023/02/14 12:01:58;;;;;;;17.85;16.35;;;39.50;14.00;;;;;;6273867;28;20250;-64
2023/02/14 12:05:05;;;;;;;18.45;16.85;;;38.70;14.10;;;;;;6273770;28;20236;-64
2023/02/14 12:08:09;;;;;;;16.65;15.13;;;37.30;15.30;;;;;;6273401;28;20696;-64
2023/02/14 12:11:22;;;;;;;17.85;16.45;;;38.20;14.80;;;;;;6273302;28;20234;-64
2023/02/14 12:14:28;;;;;;;18.90;17.15;;;38.20;14.70;;;;;;6274219;28;20244;-64
2023/02/14 12:17:35;;;;;;;17.33;15.90;;;38.20;14.90;;;;;;6269021;28;20661;-64
2023/02/14 12:20:44;;;;;;;19.35;17.58;;;39.20;14.20;;;;;;6276304;28;20708;-64
2023/02/14 12:23:55;;;;;;;16.90;15.48;;;38.90;14.40;;;;;;6277774;28;20226;-64
2023/02/14 12:27:10;;;;;;;17.75;16.33;;;38.30;14.50;;;;;;6277909;28;20249;-64
2023/02/14 12:30:17;;;;;;;18.15;16.63;;;38.40;14.60;;;;;;6277926;28;20535;-64
2023/02/14 12:33:24;;;;;;;17.60;16.20;;;38.50;14.40;;;;;;6277621;28;20244;-64
2023/02/14 12:36:42;;;;;;;18.15;16.75;;;37.30;15.00;;;;;;6277672;28;20549;-64
2023/02/14 12:40:03;;;;;;;18.83;17.08;;;36.50;15.30;;;;;;6277637;28;20238;-63
2023/02/14 12:43:33;;;;;;;18.73;17.23;;;36.10;15.70;;;;;;6277370;28;20241;-64
2023/02/14 12:46:58;;;;;;;17.55;16.05;;;35.50;16.50;;;;;;6276973;28;20239;-63
2023/02/14 12:50:30;;;;;;;17.05;15.65;;;36.70;15.70;;;;;;6275315;28;20334;-63
2023/02/14 12:53:51;;;;;;;18.52;16.83;;;37.50;15.00;;;;;;6277300;28;20720;-63
2023/02/14 12:57:03;;;;;;;18.35;16.77;;;38.20;14.60;;;;;;6277906;28;20231;-64
2023/02/14 13:00:22;;;;;;;18.70;17.13;;;39.00;14.40;;;;;;6277205;28;20575;-64
2023/02/14 13:03:45;;;;;;;19.25;17.52;;;38.40;14.40;;;;;;6276950;28;20236;-64
2023/02/14 13:06:54;;;;;;;18.65;17.02;;;37.90;14.60;;;;;;6277210;28;20238;-64
2023/02/14 13:10:03;;;;;;;18.02;16.38;;;37.60;14.70;;;;;;6276897;28;20252;-64
2023/02/14 13:13:12;;;;;;;18.30;16.73;;;37.10;15.20;;;;;;6276850;28;20513;-64
2023/02/14 13:16:23;;;;;;;18.85;17.20;;;36.20;15.30;;;;;;6277280;28;20230;-64
2023/02/14 13:19:37;;;;;;;19.08;17.48;;;35.00;16.20;;;;;;6276654;28;20226;-69
2023/02/14 13:22:41;;;;;;;18.13;16.52;;;35.40;16.20;;;;;;6276417;28;20234;-67
2023/02/14 13:25:50;;;;;;;18.85;17.00;;;36.10;16.00;;;;;;6276355;28;20211;-68
2023/02/14 13:28:57;;;;;;;17.40;15.95;;;36.90;15.50;;;;;;6276254;28;20247;-67
2023/02/14 13:32:04;;;;;;;18.63;16.83;;;36.80;15.40;;;;;;6275174;28;20233;-66
2023/02/14 13:35:08;;;;;;;18.75;16.80;;;36.90;15.30;;;;;;6275924;28;20533;-67
2023/02/14 13:38:15;;;;;;;18.13;16.60;;;36.40;15.60;;;;;;6278154;28;20226;-64
2023/02/14 13:41:20;;;;;;;18.50;16.98;;;35.40;15.70;;;;;;6276364;28;20226;-64
2023/02/14 13:44:41;;;;;;;19.20;17.40;;;34.00;17.10;;;;;;6277539;28;20228;-64
2023/02/14 13:47:46;;;;;;;17.90;16.40;;;33.70;17.50;;;;;;6267143;28;20227;-64
2023/02/14 13:50:53;;;;;;;18.88;16.88;;;34.40;16.90;;;;;;6276098;28;20233;-65
2023/02/14 13:53:57;;;;;;;18.75;17.05;;;34.50;17.40;;;;;;6276223;28;20561;-65
2023/02/14 13:57:01;;;;;;;19.10;17.42;;;34.90;16.60;;;;;;6276234;28;20231;-64
2023/02/14 14:00:37;;;;;;;18.45;16.65;;;34.70;16.70;;;;;;6275496;28;20228;-65
2023/02/14 14:03:57;;;;;;;18.27;16.67;;;35.20;16.40;;;;;;6275944;28;20239;-64
2023/02/14 14:07:20;;;;;;;18.75;16.95;;;35.10;16.50;;;;;;6276550;28;20237;-64
2023/02/14 14:10:43;;;;;;;18.70;17.00;;;34.50;16.70;;;;;;6275059;28;20235;-65
2023/02/14 14:14:01;;;;;;;17.58;16.05;;;32.40;17.90;;;;;;6275214;28;20234;-64
2023/02/14 14:17:26;;;;;;;18.90;17.10;;;29.50;20.00;;;;;;6275870;28;20219;-64
2023/02/14 14:20:48;;;;;;;19.37;17.33;;;27.20;22.00;;;;;;6271149;28;20231;-63
2023/02/14 14:24:12;;;;;;;20.70;18.90;;;24.90;24.10;;;;;;6275134;28;20246;-65
2023/02/14 14:27:18;;;;;;;18.83;16.80;;;23.20;25.90;;;;;;6275032;28;20236;-63
2023/02/14 14:30:27;;;;;;;17.13;15.30;;;21.50;27.60;;;;;;6275268;28;20563;-63
2023/02/14 14:33:32;;;;;;;16.57;15.00;;;20.10;29.30;;;;;;6275377;28;20249;-63
2023/02/14 14:36:37;;;;;;;18.80;15.30;;;19.10;30.50;;;;;;6275356;28;20231;-63
2023/02/14 14:39:40;;;;;;;16.67;15.07;;;18.30;32.30;;;;;;6274288;28;20231;-63
2023/02/14 14:42:43;;;;;;;15.60;14.00;;;17.30;34.10;;;;;;6274413;28;20236;-63
2023/02/14 14:45:49;;;;;;;15.70;14.10;;;16.70;35.40;;;;;;6274903;28;20474;-63
2023/02/14 14:48:55;;;;;;;15.27;13.77;;;16.10;36.60;;;;;;6275140;28;20466;-63
2023/02/14 14:52:00;;;;;;;15.20;13.70;;;15.60;38.10;;;;;;6275028;28;20474;-63
2023/02/14 14:55:05;;;;;;;15.17;13.57;;;15.10;39.20;;;;;;6275232;28;20494;-63
2023/02/14 14:58:31;;;;;;;15.93;14.33;;;14.60;40.30;;;;;;6274651;28;20481;-63
2023/02/14 15:01:38;;;;;;;14.07;12.67;;;14.40;41.10;;;;;;6274599;28;20446;-64
2023/02/14 15:04:42;;;;;;;14.60;13.00;;;14.10;41.90;;;;;;6274885;28;20431;-63
2023/02/14 15:07:46;;;;;;;16.17;14.50;;;13.80;43.00;;;;;;6295365;28;20485;-64
2023/02/14 15:10:56;;;;;;;17.20;14.57;;;13.70;42.80;;;;;;6295743;28;20492;-63
2023/02/14 15:13:58;;;;;;;14.70;13.17;;;13.50;43.80;;;;;;6278489;28;20462;-63
2023/02/14 15:17:04;;;;;;;17.60;13.93;;;13.30;44.40;;;;;;6274899;28;20485;-63
2023/02/14 15:20:11;;;;;;;14.63;13.17;;;13.20;44.80;;;;;;6274412;28;20466;-63
2023/02/14 15:23:21;;;;;;;14.87;13.30;;;13.10;45.10;;;;;;6274010;28;20465;-63
2023/02/14 15:26:34;;;;;;;15.30;13.70;;;12.90;46.00;;;;;;6274108;28;20462;-63
2023/02/14 15:29:37;;;;;;;14.07;12.43;;;12.60;46.80;;;;;;6274011;28;20838;-63
2023/02/14 15:32:41;;;;;;;25.37;14.57;;;12.40;47.50;;;;;;6274594;28;20810;-63
2023/02/14 15:35:44;;;;;;;17.70;14.73;;;12.30;47.80;;;;;;6274396;28;20474;-63
2023/02/14 15:38:49;;;;;;;18.90;15.30;;;12.20;48.40;;;;;;6274451;28;20961;-63
2023/02/14 15:41:54;;;;;;;18.30;15.30;;;12.00;49.10;;;;;;6274514;28;20469;-64
2023/02/14 15:45:24;;;;;;;17.87;14.60;;;12.00;49.80;;;;;;6275922;28;20806;-64
2023/02/14 15:48:33;;;;;;;20.80;13.67;;;11.80;50.20;;;;;;6274734;28;20840;-64
2023/02/14 15:51:38;;;;;;;16.50;14.10;;;11.70;50.70;;;;;;6274311;28;20469;-63
2023/02/14 15:54:46;;;;;;;19.20;15.00;;;11.50;51.30;;;;;;6275850;28;20484;-62
2023/02/14 15:57:55;;;;;;;15.57;13.83;;;11.40;51.90;;;;;;6279646;28;20499;-63
2023/02/14 16:00:59;;;;;;;15.53;13.30;;;11.40;52.50;;;;;;6279572;28;20553;-63
2023/02/14 16:04:07;;;;;;;20.73;18.20;;;11.30;53.00;;;;;;6277766;28;20478;-63
2023/02/14 16:07:26;;;;;;;14.83;13.23;;;11.20;53.40;;;;;;6278630;28;20825;-63
2023/02/14 16:10:33;;;;;;;15.73;14.07;;;11.00;54.00;;;;;;6277322;28;20466;-64
2023/02/14 16:13:38;;;;;;;15.63;13.67;;;10.90;54.90;;;;;;6278410;28;20477;-64
2023/02/14 16:17:00;;;;;;;18.03;16.07;;;10.80;55.10;;;;;;6278646;28;20442;-64
2023/02/14 16:20:21;;;;;;;19.70;17.40;;;10.70;56.30;;;;;;6277605;28;20481;-64